createdAt,value
2023-06-30T00:02:43.455Z,3.95
2023-06-30T00:06:51.141Z,5.60
2023-06-30T00:10:54.444Z,5.20
2023-06-30T00:14:57.527Z,3.90
2023-06-30T00:19:06.168Z,6.85
2023-06-30T00:23:12.369Z,6.25
2023-06-30T00:27:19.860Z,4.72
2023-06-30T00:31:23.149Z,4.97
2023-06-30T00:35:29.220Z,4.20
2023-06-30T00:39:33.707Z,3.70
2023-06-30T00:43:50.792Z,6.57
2023-06-30T00:47:54.246Z,4.05
2023-06-30T00:51:57.969Z,10.60
2023-06-30T00:56:03.023Z,5.82
2023-06-30T01:00:12.024Z,5.03
2023-06-30T01:04:20.087Z,7.82
2023-06-30T01:08:29.267Z,5.20
2023-06-30T01:12:36.783Z,6.97
2023-06-30T01:16:44.717Z,7.22
2023-06-30T01:20:48.848Z,5.35
2023-06-30T01:24:59.057Z,5.63
2023-06-30T01:29:04.957Z,6.43
2023-06-30T01:33:08.150Z,8.32
2023-06-30T01:37:15.865Z,8.77
2023-06-30T01:41:19.437Z,6.38
2023-06-30T01:45:30.373Z,8.70
2023-06-30T01:49:36.687Z,7.30
2023-06-30T01:53:40.418Z,7.85
2023-06-30T01:57:43.627Z,12.00
2023-06-30T02:01:50.186Z,9.13
2023-06-30T02:05:53.520Z,11.18
2023-06-30T02:09:57.290Z,8.90
2023-06-30T02:14:02.210Z,9.68
2023-06-30T02:18:06.928Z,7.70
2023-06-30T02:22:09.999Z,10.85
2023-06-30T02:26:13.183Z,9.27
2023-06-30T02:30:16.506Z,10.02
2023-06-30T02:34:21.235Z,9.15
2023-06-30T02:38:24.765Z,11.48
2023-06-30T02:42:27.818Z,12.10
2023-06-30T02:46:33.567Z,12.27
2023-06-30T02:50:39.396Z,9.95
2023-06-30T02:54:45.910Z,9.45
2023-06-30T02:58:48.963Z,9.38
2023-06-30T03:07:22.108Z,12.23
2023-06-30T03:11:28.803Z,9.05
2023-06-30T03:15:42.961Z,7.85
2023-06-30T03:19:49.068Z,11.48
2023-06-30T03:23:55.282Z,9.95
2023-06-30T03:28:02.375Z,9.45
2023-06-30T03:32:08.342Z,12.68
2023-06-30T03:36:14.373Z,11.52
2023-06-30T03:40:21.844Z,10.63
2023-06-30T03:44:28.864Z,10.20
2023-06-30T03:48:37.115Z,12.95
2023-06-30T03:52:43.783Z,10.80
2023-06-30T03:57:04.177Z,12.15
2023-06-30T04:01:13.177Z,12.35
2023-06-30T04:05:21.803Z,11.55
2023-06-30T04:09:29.212Z,11.40
2023-06-30T04:13:39.093Z,10.45
2023-06-30T04:17:44.155Z,12.45
2023-06-30T04:21:56.146Z,11.40
2023-06-30T04:26:15.660Z,13.77
2023-06-30T04:35:15.530Z,10.63
2023-06-30T04:39:27.985Z,12.52
2023-06-30T04:43:36.603Z,14.82
2023-06-30T04:47:56.706Z,11.68
2023-06-30T04:52:06.181Z,13.57
2023-06-30T04:56:16.838Z,15.30
2023-06-30T05:00:25.209Z,16.92
2023-06-30T05:04:32.742Z,12.52
2023-06-30T05:08:40.337Z,13.10
2023-06-30T05:12:54.606Z,15.43
2023-06-30T05:17:00.857Z,13.95
2023-06-30T05:21:28.827Z,11.13
2023-06-30T05:25:36.157Z,14.43
2023-06-30T05:29:56.721Z,17.00
2023-06-30T05:34:07.732Z,14.45
2023-06-30T05:38:30.908Z,12.23
2023-06-30T05:42:39.910Z,11.00
2023-06-30T05:46:47.824Z,14.02
2023-06-30T05:56:07.224Z,15.57
2023-06-30T06:00:12.300Z,12.35
2023-06-30T06:04:15.476Z,11.52
2023-06-30T06:08:21.152Z,12.32
2023-06-30T06:12:30.134Z,12.35
2023-06-30T06:16:35.801Z,21.85
2023-06-30T06:20:39.127Z,15.52
2023-06-30T06:24:45.378Z,9.27
2023-06-30T06:28:49.911Z,14.50
2023-06-30T06:32:54.201Z,9.15
2023-06-30T06:37:01.663Z,10.75
2023-06-30T06:41:04.952Z,12.05
2023-06-30T06:45:10.237Z,9.07
2023-06-30T06:49:14.642Z,7.60
2023-06-30T06:53:21.311Z,9.20
2023-06-30T06:57:35.441Z,8.25
2023-06-30T07:01:45.098Z,7.68
2023-06-30T07:05:51.959Z,6.97
2023-06-30T07:09:55.181Z,9.73
2023-06-30T07:14:11.568Z,8.05
2023-06-30T07:18:19.983Z,7.57
2023-06-30T07:22:27.007Z,9.93
2023-06-30T07:26:32.614Z,7.63
2023-06-30T07:30:37.750Z,8.52
2023-06-30T07:34:46.629Z,7.68
2023-06-30T07:38:49.651Z,8.57
2023-06-30T07:42:54.614Z,10.40
2023-06-30T07:47:01.024Z,10.48
2023-06-30T07:51:09.855Z,10.55
2023-06-30T07:55:14.904Z,9.55
2023-06-30T07:59:21.131Z,8.82
2023-06-30T08:03:24.458Z,8.90
2023-06-30T08:07:48.706Z,8.98
2023-06-30T08:11:52.275Z,9.00
2023-06-30T08:16:00.579Z,13.45
2023-06-30T08:20:08.361Z,13.38
2023-06-30T08:24:12.853Z,10.35
2023-06-30T08:28:16.277Z,13.73
2023-06-30T08:32:20.646Z,9.27
2023-06-30T08:36:25.117Z,9.57
2023-06-30T08:40:32.747Z,8.95
2023-06-30T08:44:38.101Z,8.50
2023-06-30T08:48:43.282Z,9.45
2023-06-30T08:52:46.703Z,8.85
2023-06-30T08:56:51.529Z,8.52
2023-06-30T09:00:59.153Z,23.13
2023-06-30T09:05:03.193Z,23.42
2023-06-30T09:09:12.596Z,21.75
2023-06-30T09:13:21.656Z,20.73
2023-06-30T09:17:26.352Z,19.73
2023-06-30T09:21:29.442Z,31.67
2023-06-30T09:25:43.017Z,22.45
2023-06-30T09:29:55.342Z,27.25
2023-06-30T09:34:09.810Z,30.65
2023-06-30T09:38:13.917Z,26.75
2023-06-30T09:42:17.868Z,27.17
2023-06-30T09:46:24.630Z,30.60
2023-06-30T09:50:28.725Z,29.85
2023-06-30T09:54:44.410Z,30.63
2023-06-30T09:58:49.622Z,31.83
2023-06-30T10:03:06.859Z,30.05
2023-06-30T10:07:11.578Z,27.30
2023-06-30T10:11:14.836Z,27.20
2023-06-30T10:15:19.932Z,22.38
2023-06-30T10:19:28.812Z,12.35
2023-06-30T10:23:34.027Z,17.08
2023-06-30T10:27:38.036Z,19.42
2023-06-30T10:31:51.184Z,11.70
2023-06-30T10:35:56.451Z,13.00
2023-06-30T10:39:59.696Z,14.95
2023-06-30T10:44:15.785Z,13.65
2023-06-30T10:48:21.822Z,14.45
2023-06-30T10:52:30.408Z,11.93
2023-06-30T10:56:35.894Z,10.65
2023-06-30T11:01:06.093Z,14.00
2023-06-30T11:05:23.270Z,14.40
2023-06-30T11:09:27.831Z,14.93
2023-06-30T11:13:38.948Z,13.90
2023-06-30T11:18:04.751Z,17.67
2023-06-30T11:22:23.902Z,15.68
2023-06-30T11:26:29.037Z,16.33
2023-06-30T11:30:42.566Z,20.10
2023-06-30T11:34:48.078Z,14.68
2023-06-30T11:38:52.670Z,18.33
2023-06-30T11:42:57.155Z,13.80
2023-06-30T11:47:09.081Z,18.13
2023-06-30T11:51:15.240Z,13.50
2023-06-30T11:55:21.143Z,15.25
2023-06-30T11:59:28.313Z,14.27
2023-06-30T12:03:31.632Z,17.42
2023-06-30T12:07:35.005Z,14.05
2023-06-30T12:11:40.211Z,19.63
2023-06-30T12:15:44.962Z,19.05
2023-06-30T12:19:48.228Z,26.42
2023-06-30T12:23:51.258Z,29.58
2023-06-30T12:27:55.749Z,27.15
2023-06-30T12:32:00.724Z,28.80
2023-06-30T12:36:07.315Z,28.10
2023-06-30T12:40:12.450Z,33.05
2023-06-30T12:44:15.816Z,26.55
2023-06-30T12:48:20.557Z,27.65
2023-06-30T12:52:23.637Z,29.63
2023-06-30T12:56:26.799Z,31.88
2023-06-30T13:00:31.166Z,31.15
2023-06-30T13:04:39.992Z,26.35
2023-06-30T13:08:43.208Z,30.00
2023-06-30T13:12:46.689Z,28.00
2023-06-30T13:16:52.091Z,29.15
2023-06-30T13:20:57.095Z,36.20
2023-06-30T13:25:00.995Z,31.05
2023-06-30T13:29:05.201Z,31.52
2023-06-30T13:33:08.994Z,33.20
2023-06-30T13:37:18.506Z,35.22
2023-06-30T13:41:24.537Z,34.13
2023-06-30T13:45:27.577Z,38.08
2023-06-30T13:49:30.621Z,39.20
2023-06-30T13:53:40.178Z,35.08
2023-06-30T13:57:43.246Z,39.78
2023-06-30T14:01:48.116Z,36.78
2023-06-30T14:05:53.303Z,34.67
2023-06-30T14:10:02.455Z,33.10
2023-06-30T14:14:06.819Z,36.28
2023-06-30T14:18:14.521Z,37.65
2023-06-30T14:22:19.692Z,45.85
2023-06-30T14:26:26.210Z,36.90
2023-06-30T14:30:33.552Z,37.88
2023-06-30T14:34:36.849Z,42.10
2023-06-30T14:38:40.639Z,39.53
2023-06-30T14:42:45.815Z,41.75
2023-06-30T14:46:56.832Z,38.35
2023-06-30T14:51:01.578Z,36.25
2023-06-30T14:55:06.687Z,37.88
2023-06-30T14:59:14.454Z,39.63
2023-06-30T15:03:20.301Z,40.42
2023-06-30T15:07:23.590Z,35.40
2023-06-30T15:11:29.248Z,40.25
2023-06-30T15:15:34.064Z,38.80
2023-06-30T15:19:42.823Z,34.33
2023-06-30T15:23:52.290Z,32.95
2023-06-30T15:27:58.772Z,38.03
2023-06-30T15:32:06.466Z,34.28
2023-06-30T15:36:09.726Z,32.15
2023-06-30T15:40:14.056Z,29.92
2023-06-30T15:44:19.729Z,33.85
2023-06-30T15:48:27.313Z,35.33
2023-06-30T15:52:35.094Z,33.33
2023-06-30T15:56:40.526Z,34.47
2023-06-30T16:00:43.807Z,37.65
2023-06-30T16:04:50.821Z,35.50
2023-06-30T16:08:53.928Z,39.30
2023-06-30T16:13:10.776Z,40.35
2023-06-30T16:17:16.412Z,40.40
2023-06-30T16:21:23.115Z,41.65
2023-06-30T16:25:28.390Z,40.33
2023-06-30T16:29:41.505Z,40.90
2023-06-30T16:33:48.536Z,43.63
2023-06-30T16:37:55.931Z,41.90
2023-06-30T16:42:02.082Z,42.05
2023-06-30T16:46:08.027Z,42.60
2023-06-30T16:50:11.245Z,39.88
2023-06-30T16:54:16.808Z,44.17
2023-06-30T16:58:31.040Z,42.10
2023-06-30T17:02:34.490Z,37.00
2023-06-30T17:06:38.156Z,32.38
2023-06-30T17:10:47.177Z,31.30
2023-06-30T17:14:53.366Z,30.40
2023-06-30T17:18:57.867Z,28.45
2023-06-30T17:23:06.137Z,28.40
2023-06-30T17:27:12.618Z,27.73
2023-06-30T17:31:17.885Z,29.48
2023-06-30T17:35:22.179Z,30.92
2023-06-30T17:39:25.868Z,30.85
2023-06-30T17:43:30.297Z,32.38
2023-06-30T17:47:33.456Z,33.78
2023-06-30T17:51:37.469Z,34.35
2023-06-30T17:55:40.514Z,30.52
2023-06-30T17:59:44.978Z,34.28
2023-06-30T18:03:50.682Z,34.38
2023-06-30T18:07:54.878Z,32.30
2023-06-30T18:12:01.480Z,33.63
2023-06-30T18:16:06.671Z,34.05
2023-06-30T18:20:12.781Z,32.13
2023-06-30T18:24:19.202Z,35.00
2023-06-30T18:28:25.095Z,31.38
2023-06-30T18:32:32.476Z,36.25
2023-06-30T18:36:38.269Z,35.22
2023-06-30T18:40:41.313Z,31.35
2023-06-30T18:44:46.226Z,32.70
2023-06-30T18:48:50.816Z,37.90
2023-06-30T18:52:54.875Z,37.80
2023-06-30T18:57:01.190Z,40.78
2023-06-30T19:01:04.385Z,41.92
2023-06-30T19:05:11.502Z,40.97
2023-06-30T19:09:20.518Z,41.63
2023-06-30T19:13:26.033Z,38.33
2023-06-30T19:17:30.625Z,39.25
2023-06-30T19:21:36.603Z,35.47
2023-06-30T19:25:40.050Z,38.13
2023-06-30T19:29:43.316Z,35.83
2023-06-30T19:33:46.697Z,33.92
2023-06-30T19:37:54.038Z,32.83
2023-06-30T19:41:59.510Z,34.30
2023-06-30T19:46:02.615Z,32.42
2023-06-30T19:50:07.952Z,35.67
2023-06-30T19:54:15.229Z,30.67
2023-06-30T19:58:18.402Z,35.55
2023-06-30T20:02:21.496Z,32.60
2023-06-30T20:06:24.611Z,33.40
2023-06-30T20:10:32.766Z,31.70
2023-06-30T20:14:38.117Z,33.03
2023-06-30T20:18:45.714Z,32.90
2023-06-30T20:22:49.994Z,39.00
2023-06-30T20:26:54.911Z,36.08
2023-06-30T20:30:58.705Z,36.03
2023-06-30T20:35:06.830Z,34.70
2023-06-30T20:39:09.828Z,35.95
2023-06-30T20:43:14.544Z,36.42
2023-06-30T20:47:18.599Z,35.08
2023-06-30T20:51:24.980Z,33.63
2023-06-30T20:55:30.528Z,32.10
2023-06-30T20:59:37.748Z,32.53
2023-06-30T21:03:44.274Z,36.08
2023-06-30T21:07:47.460Z,35.38
2023-06-30T21:11:50.485Z,34.95
2023-06-30T21:15:55.250Z,35.53
2023-06-30T21:20:03.808Z,38.53
2023-06-30T21:24:07.746Z,40.65
2023-06-30T21:28:10.762Z,35.47
2023-06-30T21:32:15.224Z,33.92
2023-06-30T21:36:18.557Z,37.03
2023-06-30T21:40:23.095Z,38.60
2023-06-30T21:44:28.021Z,41.05
2023-06-30T21:48:33.643Z,35.50
2023-06-30T21:52:41.706Z,35.58
2023-06-30T21:56:44.741Z,34.53
2023-06-30T22:00:47.753Z,40.30
2023-06-30T22:04:53.462Z,31.35
2023-06-30T22:09:00.312Z,42.08
2023-06-30T22:13:06.414Z,35.08
2023-06-30T22:17:09.811Z,36.00
2023-06-30T22:21:18.163Z,32.67
2023-06-30T22:25:24.621Z,34.88
2023-06-30T22:29:29.530Z,30.58
2023-06-30T22:33:33.733Z,36.30
2023-06-30T22:37:38.320Z,34.78
2023-06-30T22:41:41.379Z,30.17
2023-06-30T22:45:45.057Z,33.17
2023-06-30T22:49:48.122Z,35.65
2023-06-30T22:53:52.933Z,28.65
2023-06-30T22:57:58.222Z,29.98
2023-06-30T23:02:01.354Z,31.63
2023-06-30T23:06:06.161Z,31.23
2023-06-30T23:10:11.528Z,29.13
2023-06-30T23:14:14.570Z,34.70
2023-06-30T23:18:20.611Z,33.17
2023-06-30T23:22:27.025Z,37.78
2023-06-30T23:26:31.937Z,39.40
2023-06-30T23:30:38.530Z,36.38
2023-06-30T23:34:44.428Z,33.67
2023-06-30T23:38:48.779Z,43.88
2023-06-30T23:42:57.454Z,40.33
2023-06-30T23:47:04.408Z,35.38
2023-06-30T23:51:10.445Z,40.60
2023-06-30T23:55:13.815Z,46.80
2023-06-30T23:59:18.935Z,44.58
